< < Back
Terminal Aerodrome Forecast


Current Version              Previous Versions:   1  2  3  4  5  6  7  8  9  

Terminal Aerodrome Forecast

007
FTUS42 KJAX 281120
TAFJAX
TAF
KJAX 281120Z 2812/2912 VRB03KT P6SM SCT060
     FM281400 03009KT P6SM SCT025 BKN060
     FM281700 03012G20KT P6SM VCSH BKN030 BKN060
     FM290000 01006KT P6SM SCT025 SCT060
     FM290600 VRB03KT P6SM SCT025 BKN060=

Latest METAR

535
SAUS80 KWBC 282000
MTRJAX
METAR KJAX 281956Z 03012KT 10SM FEW026 SCT046 BKN080 BKN200 28/22 A3001
RMK AO2 SLP164 T02830217


USA.gov is the U.S. government's official web portal to all federal, state and local government web resources and services.